Time;durP1;ratioP1;P1;durP2;ratioP2;P2;SDS_P1;SDS_P2;PMS_P1;PMS_P2;Temp;Humidity;BMP_temperature;BMP_pressure;BME280_temperature;BME280_humidity;BME280_pressure;Samples;Min_cycle;Max_cycle;Signal;HPM_P1;HPM_P2
2022/08/10 00:02:54;;;;;;;5.68;2.80;;;;;;;28.15;43.78;101129.16;4967560;28;20219;-62
2022/08/10 00:05:39;;;;;;;5.47;2.85;;;;;;;28.06;43.98;101133.28;4965668;28;20045;-61
2022/08/10 00:08:24;;;;;;;4.70;2.53;;;;;;;28.03;44.42;101136.94;4965498;28;20418;-62
2022/08/10 00:11:09;;;;;;;7.38;3.00;;;;;;;28.09;44.52;101142.81;4971510;28;20049;-62
2022/08/10 00:13:54;;;;;;;5.20;2.30;;;;;;;28.09;44.42;101145.63;4966575;28;20046;-62
2022/08/10 00:16:39;;;;;;;3.35;2.33;;;;;;;28.13;44.54;101149.19;4972228;28;20045;-62
2022/08/10 00:19:24;;;;;;;10.63;3.15;;;;;;;28.06;44.06;101144.47;4971928;28;20054;-62
2022/08/10 00:22:10;;;;;;;5.57;2.72;;;;;;;28.00;44.64;101148.16;4971145;28;20050;-61
2022/08/10 00:24:56;;;;;;;3.28;2.50;;;;;;;27.93;44.30;101142.72;4969561;28;20046;-61
2022/08/10 00:27:41;;;;;;;10.98;4.05;;;;;;;27.82;44.88;101156.84;4968330;28;20061;-61
2022/08/10 00:30:29;;;;;;;6.63;3.42;;;;;;;27.62;44.64;101150.38;4973004;28;20065;-61
2022/08/10 00:33:14;;;;;;;9.50;3.47;;;;;;;27.58;43.71;101146.84;4975850;28;20054;-61
2022/08/10 00:35:59;;;;;;;9.48;2.88;;;;;;;27.70;44.02;101148.25;4964526;28;20050;-62
2022/08/10 00:38:44;;;;;;;4.80;2.50;;;;;;;27.78;44.67;101146.94;4975544;28;20514;-61
2022/08/10 00:41:29;;;;;;;3.65;2.35;;;;;;;27.81;44.28;101148.88;4975417;28;20062;-61
2022/08/10 00:44:13;;;;;;;8.57;2.70;;;;;;;27.80;43.86;101156.47;4972867;28;20054;-62
2022/08/10 00:46:59;;;;;;;7.90;2.22;;;;;;;27.79;42.79;101145.69;4973624;28;20042;-61
2022/08/10 00:49:45;;;;;;;3.47;1.52;;;;;;;27.79;42.93;101154.88;4975412;28;20057;-61
2022/08/10 00:52:30;;;;;;;1.85;1.75;;;;;;;27.83;43.44;101161.22;4969694;28;20069;-62
2022/08/10 00:55:15;;;;;;;3.78;1.77;;;;;;;27.87;43.64;101170.34;4975950;28;20053;-62
2022/08/10 00:58:01;;;;;;;3.75;1.80;;;;;;;27.89;43.97;101173.50;4975497;28;20041;-61
2022/08/10 01:00:47;;;;;;;6.25;2.45;;;;;;;27.87;43.35;101167.56;4974977;28;20054;-62
2022/08/10 01:03:31;;;;;;;4.20;1.70;;;;;;;27.88;42.73;101168.34;4974411;28;20054;-62
2022/08/10 01:06:40;;;;;;;3.78;1.60;;;;;;;27.85;41.17;101156.00;4974921;28;20528;-61
2022/08/10 01:09:39;;;;;;;4.85;3.05;;;;;;;27.84;40.62;101148.03;4974929;28;20509;-61
2022/08/10 01:12:39;;;;;;;3.45;1.60;;;;;;;27.84;40.46;101134.84;4974829;28;20513;-61
2022/08/10 01:15:30;;;;;;;4.28;1.80;;;;;;;27.84;41.10;101131.25;4978919;28;20539;-62
2022/08/10 01:18:29;;;;;;;5.68;1.40;;;;;;;27.86;40.50;101129.63;5001208;23;20052;-63
2022/08/10 01:21:28;;;;;;;3.10;1.30;;;;;;;27.84;39.96;101125.66;5015381;28;20045;-63
2022/08/10 01:24:31;;;;;;;2.70;1.27;;;;;;;27.84;39.16;101126.44;5004707;28;20048;-62
2022/08/10 01:27:44;;;;;;;1.80;1.30;;;;;;;27.86;38.43;101124.03;5009915;28;20402;-62
2022/08/10 01:30:31;;;;;;;4.18;1.05;;;;;;;27.81;37.14;101110.53;5001689;28;20413;-62
2022/08/10 01:33:34;;;;;;;3.92;1.10;;;;;;;27.81;36.81;101120.91;5006307;28;20061;-63
2022/08/10 01:36:26;;;;;;;2.10;1.27;;;;;;;27.80;36.96;101116.53;5013892;28;20041;-62
2022/08/10 01:39:18;;;;;;;1.73;1.23;;;;;;;27.82;37.01;101117.72;5011701;28;20045;-62
2022/08/10 01:42:04;;;;;;;5.43;1.75;;;;;;;27.82;37.18;101112.13;5012826;28;20401;-64
2022/08/10 01:44:53;;;;;;;5.65;1.45;;;;;;;27.82;36.52;101106.53;5013834;28;20061;-61
2022/08/10 01:50:51;;;;;;;3.22;1.00;;;;;;;27.79;35.84;101101.78;4994934;28;20061;-62
2022/08/10 01:53:45;;;;;;;4.75;1.67;;;;;;;27.79;35.18;101107.34;5001788;28;20528;-62
2022/08/10 01:56:35;;;;;;;3.22;0.70;;;;;;;27.77;35.45;101109.00;5007773;28;20049;-64
2022/08/10 01:59:33;;;;;;;2.60;0.88;;;;;;;27.78;35.46;101105.81;5013087;28;20052;-61
2022/08/10 02:02:19;;;;;;;3.25;1.10;;;;;;;27.75;34.76;101109.44;5013329;28;20045;-62
2022/08/10 02:05:06;;;;;;;3.53;0.93;;;;;;;27.78;35.64;101108.59;5000960;28;20072;-62
2022/08/10 02:07:54;;;;;;;3.45;1.00;;;;;;;27.79;35.67;101110.16;4987142;28;20044;-63
2022/08/10 02:10:41;;;;;;;3.85;1.20;;;;;;;27.79;35.68;101115.75;4998305;28;20516;-62
2022/08/10 02:13:27;;;;;;;3.00;1.10;;;;;;;27.78;35.27;101107.81;4998708;28;20096;-62
2022/08/10 02:16:13;;;;;;;2.03;0.88;;;;;;;27.79;36.08;101107.34;5004813;28;20045;-62
2022/08/10 02:19:00;;;;;;;2.13;1.00;;;;;;;27.79;35.95;101110.16;4993954;28;20046;-62
2022/08/10 02:21:48;;;;;;;2.65;1.00;;;;;;;27.80;36.31;101111.75;5012755;28;20069;-64
2022/08/10 02:24:35;;;;;;;5.32;0.90;;;;;;;27.79;35.98;101107.34;5012880;28;20049;-63
2022/08/10 02:27:23;;;;;;;2.08;1.15;;;;;;;27.83;36.23;101108.13;5005783;28;20045;-62
2022/08/10 02:30:10;;;;;;;3.70;1.02;;;;;;;27.81;35.64;101112.53;4994595;28;20062;-62
2022/08/10 02:32:57;;;;;;;2.55;0.65;;;;;;;27.80;35.19;101103.34;5010196;28;20432;-63
2022/08/10 02:35:44;;;;;;;3.38;0.90;;;;;;;27.79;34.82;101095.38;5012546;28;20038;-62
2022/08/10 02:38:33;;;;;;;4.15;1.25;;;;;;;27.84;34.29;101097.69;5013091;28;20048;-64
2022/08/10 02:41:28;;;;;;;2.75;0.88;;;;;;;27.81;35.44;101093.75;5005008;28;20048;-64
2022/08/10 02:44:24;;;;;;;1.50;1.00;;;;;;;27.82;35.35;101089.75;5012861;28;20401;-63
2022/08/10 02:47:35;;;;;;;2.70;0.80;;;;;;;27.80;34.79;101094.97;5009062;28;20114;-62
2022/08/10 02:50:29;;;;;;;2.45;1.15;;;;;;;27.81;34.67;101098.56;5004942;28;20049;-63
2022/08/10 02:53:29;;;;;;;3.67;0.98;;;;;;;27.80;35.51;101089.38;5009599;28;20061;-63
2022/08/10 02:56:27;;;;;;;1.52;0.90;;;;;;;27.81;35.74;101093.75;5004152;28;20048;-61
2022/08/10 02:59:23;;;;;;;3.80;0.90;;;;;;;27.81;35.47;101088.16;5012378;28;20048;-61
2022/08/10 03:02:13;;;;;;;3.72;0.93;;;;;;;27.83;35.70;101084.97;5011902;28;20111;-61
2022/08/10 03:05:13;;;;;;;1.05;0.70;;;;;;;27.84;35.78;101092.09;5012016;28;20073;-64
2022/08/10 03:08:02;;;;;;;3.00;1.10;;;;;;;27.81;35.70;101088.16;5008105;28;20053;-62
2022/08/10 03:10:49;;;;;;;1.83;0.88;;;;;;;27.79;35.65;101089.78;4997197;28;20416;-63
2022/08/10 03:13:35;;;;;;;2.40;0.90;;;;;;;27.78;35.00;101091.81;4998858;28;20064;-61
2022/08/10 03:16:21;;;;;;;2.30;1.02;;;;;;;27.77;35.65;101093.03;4990268;28;20045;-63
2022/08/10 03:19:08;;;;;;;3.47;0.90;;;;;;;27.75;35.11;101094.66;5012000;28;20345;-62
2022/08/10 03:21:54;;;;;;;1.75;0.90;;;;;;;27.71;35.06;101097.50;5010589;28;20040;-62
2022/08/10 03:24:41;;;;;;;2.65;0.75;;;;;;;27.75;35.72;101112.22;4997873;28;20049;-61
2022/08/10 03:27:28;;;;;;;2.10;0.80;;;;;;;27.75;35.39;101101.03;5004740;28;20041;-61
2022/08/10 03:30:14;;;;;;;6.22;1.10;;;;;;;27.74;35.53;101105.03;4994978;28;20420;-61
2022/08/10 03:33:01;;;;;;;3.83;0.90;;;;;;;27.72;35.43;101099.09;5006139;28;20057;-62
2022/08/10 03:35:47;;;;;;;2.72;0.93;;;;;;;27.72;35.87;101104.69;5011714;28;20049;-62
2022/08/10 03:38:32;;;;;;;2.88;1.05;;;;;;;27.73;35.86;101103.50;5011667;28;20060;-62
2022/08/10 03:41:35;;;;;;;2.03;0.80;;;;;;;27.73;35.71;101097.09;5007533;28;20069;-62
2022/08/10 03:44:26;;;;;;;2.20;0.75;;;;;;;27.70;35.17;101095.13;5011290;28;20045;-62
2022/08/10 03:47:13;;;;;;;4.25;1.17;;;;;;;27.69;35.04;101105.53;4999361;28;20060;-61
2022/08/10 03:50:01;;;;;;;2.95;0.80;;;;;;;27.71;35.14;101110.69;4996581;28;20041;-62
2022/08/10 03:52:47;;;;;;;2.17;1.10;;;;;;;27.66;35.40;101103.59;5007807;28;20045;-62
2022/08/10 03:55:32;;;;;;;2.42;1.00;;;;;;;27.63;35.19;101105.19;5005000;28;20053;-61
2022/08/10 03:58:17;;;;;;;5.05;1.20;;;;;;;27.60;34.47;101113.66;5011402;28;20528;-61
2022/08/10 04:01:03;;;;;;;2.10;0.82;;;;;;;27.57;34.37;101106.91;5008718;28;20053;-63
2022/08/10 04:03:48;;;;;;;1.98;0.93;;;;;;;27.57;34.68;101108.91;4991945;28;20521;-62
2022/08/10 04:06:33;;;;;;;2.28;1.02;;;;;;;27.56;35.14;101110.13;5008518;28;20049;-61
2022/08/10 04:09:18;;;;;;;2.03;0.93;;;;;;;27.52;34.63;101101.00;5010422;28;20045;-61
2022/08/10 04:12:04;;;;;;;2.72;1.15;;;;;;;27.52;34.30;101112.19;4991203;28;20049;-61
2022/08/10 04:14:49;;;;;;;3.05;0.80;;;;;;;27.51;34.58;101108.59;4997056;28;20398;-62
2022/08/10 04:17:34;;;;;;;6.63;1.58;;;;;;;27.48;33.93;101108.63;5005516;28;20397;-62
2022/08/10 04:20:28;;;;;;;2.47;1.77;;;;;;;27.46;33.77;101097.88;4998818;28;20053;-63
2022/08/10 04:23:18;;;;;;;1.60;1.10;;;;;;;27.50;34.19;101103.41;5019618;23;20412;-63
2022/08/10 04:26:03;;;;;;;4.03;1.10;;;;;;;27.46;33.74;101105.44;5029287;28;20061;-62
2022/08/10 04:28:48;;;;;;;3.35;0.80;;;;;;;27.46;33.91;101108.25;5031170;28;20056;-63
2022/08/10 04:31:35;;;;;;;7.47;0.93;;;;;;;27.46;33.84;101111.03;5003464;28;20060;-63
2022/08/10 04:34:22;;;;;;;1.80;0.82;;;;;;;27.39;33.44;101109.13;5002753;28;20593;-62
2022/08/10 04:37:08;;;;;;;2.58;0.95;;;;;;;27.37;34.20;101110.78;5006075;28;20045;-62
2022/08/10 04:39:54;;;;;;;7.47;2.08;;;;;;;27.38;34.81;101109.56;4987753;28;20057;-62
2022/08/10 04:42:39;;;;;;;1.35;0.80;;;;;;;27.38;35.04;101120.75;5003527;28;20049;-62
2022/08/10 04:45:24;;;;;;;1.23;0.77;;;;;;;27.38;35.21;101117.97;5010883;28;20053;-61
2022/08/10 04:48:09;;;;;;;2.47;1.15;;;;;;;27.39;35.05;101116.72;4996653;28;20409;-62
2022/08/10 04:50:54;;;;;;;2.25;0.77;;;;;;;27.34;35.00;101125.56;4994259;28;20049;-62
2022/08/10 04:53:39;;;;;;;1.52;0.90;;;;;;;27.36;35.09;101129.53;5000324;28;20406;-63
2022/08/10 04:56:24;;;;;;;3.72;0.98;;;;;;;27.39;35.39;101133.47;4993258;28;20042;-64
2022/08/10 04:59:10;;;;;;;4.43;1.20;;;;;;;27.39;35.25;101134.28;5002856;28;20257;-63
2022/08/10 05:01:55;;;;;;;2.67;1.00;;;;;;;27.42;35.26;101144.63;4993588;28;20049;-64
2022/08/10 05:04:41;;;;;;;3.90;1.10;;;;;;;27.38;35.28;101148.69;5010628;28;20045;-62
2022/08/10 05:07:26;;;;;;;3.78;1.08;;;;;;;27.35;34.70;101139.13;5010595;28;20401;-64
2022/08/10 05:10:11;;;;;;;2.78;1.95;;;;;;;27.39;34.54;101150.25;5010443;28;20056;-61
2022/08/10 05:12:56;;;;;;;5.38;1.08;;;;;;;27.36;34.76;101151.09;5008170;28;20045;-64
2022/08/10 05:15:42;;;;;;;5.90;1.20;;;;;;;27.32;34.91;101151.16;5010822;28;20045;-63
2022/08/10 05:18:27;;;;;;;2.63;0.82;;;;;;;27.31;34.79;101154.34;5014213;28;20037;-64
2022/08/10 05:21:12;;;;;;;3.65;1.60;;;;;;;27.33;34.64;101160.31;5013244;28;20041;-63
2022/08/10 05:24:03;;;;;;;5.28;1.08;;;;;;;27.32;35.00;101161.53;5012031;28;20045;-63
2022/08/10 05:26:48;;;;;;;5.65;0.90;;;;;;;27.31;34.57;101154.34;5013932;28;20418;-63
2022/08/10 05:29:33;;;;;;;2.50;1.00;;;;;;;27.33;34.77;101160.31;5003539;28;20049;-64
2022/08/10 05:32:18;;;;;;;5.22;1.13;;;;;;;27.34;35.27;101159.88;5013185;28;20065;-63
2022/08/10 05:35:04;;;;;;;11.45;1.30;;;;;;;27.34;35.14;101153.50;5013518;28;20045;-64
2022/08/10 05:37:50;;;;;;;4.40;1.10;;;;;;;27.35;35.65;101152.28;5013516;28;20516;-63
2022/08/10 05:40:38;;;;;;;2.13;1.00;;;;;;;27.38;35.48;101154.28;5013472;28;20049;-64
2022/08/10 05:43:23;;;;;;;4.18;1.30;;;;;;;27.37;35.69;101158.25;5013662;28;20061;-64
2022/08/10 05:46:08;;;;;;;3.75;1.10;;;;;;;27.36;35.60;101159.47;5014042;28;20688;-64
2022/08/10 05:48:53;;;;;;;3.42;1.23;;;;;;;27.37;35.57;101161.06;5011167;28;20060;-64
2022/08/10 05:51:38;;;;;;;3.47;0.95;;;;;;;27.35;35.27;101157.88;5013014;28;20045;-63
2022/08/10 05:54:24;;;;;;;4.10;0.98;;;;;;;27.36;35.12;101151.09;5011127;28;20408;-63
2022/08/10 05:57:10;;;;;;;1.88;0.90;;;;;;;27.36;35.40;101153.88;5013221;28;20045;-63
2022/08/10 06:00:02;;;;;;;4.35;1.40;;;;;;;27.37;35.80;101155.47;5012911;28;20516;-62
2022/08/10 06:03:00;;;;;;;5.38;1.17;;;;;;;27.33;35.53;101158.28;5017732;28;20076;-62
2022/08/10 06:05:46;;;;;;;6.55;1.60;;;;;;;27.34;36.01;101157.09;5013440;28;20044;-66
2022/08/10 06:08:34;;;;;;;4.90;1.20;;;;;;;27.37;35.78;101152.69;5012976;28;20057;-63
2022/08/10 06:11:21;;;;;;;6.13;1.10;;;;;;;27.41;36.19;101156.22;5006041;28;20313;-63
2022/08/10 06:17:11;;;;;;;3.30;1.20;;;;;;;27.46;36.57;101162.13;5012726;28;20049;-65
2022/08/10 06:19:58;;;;;;;4.22;1.48;;;;;;;27.50;36.48;101160.09;5012584;28;20053;-64
2022/08/10 06:22:43;;;;;;;4.65;1.40;;;;;;;27.54;36.52;101157.25;4995369;28;20240;-63
2022/08/10 06:25:29;;;;;;;5.22;1.25;;;;;;;27.57;36.38;101156.41;5008821;28;20038;-65
2022/08/10 06:28:17;;;;;;;3.67;1.02;;;;;;;27.59;35.84;101160.38;5002921;28;20049;-63
2022/08/10 06:31:04;;;;;;;1.38;0.95;;;;;;;27.64;36.34;101159.09;5011134;28;20045;-64
2022/08/10 06:33:50;;;;;;;5.00;1.13;;;;;;;27.67;35.70;101161.06;4995410;28;20053;-64
2022/08/10 06:36:37;;;;;;;4.90;1.08;;;;;;;27.71;35.84;101158.22;5012843;28;20053;-64
2022/08/10 06:39:22;;;;;;;4.85;0.90;;;;;;;27.76;35.55;101160.53;4999337;28;20053;-65
2022/08/10 06:42:10;;;;;;;3.10;0.77;;;;;;;27.81;35.80;101162.84;5008422;28;20045;-64
2022/08/10 06:45:03;;;;;;;3.42;0.93;;;;;;;27.85;35.15;101169.16;5005159;28;20061;-64
2022/08/10 06:47:54;;;;;;;1.55;0.90;;;;;;;27.89;35.55;101172.69;5009141;28;20065;-65
2022/08/10 06:50:50;;;;;;;8.38;1.20;;;;;;;27.94;35.22;101175.81;5000544;28;20096;-63
2022/08/10 06:53:38;;;;;;;2.47;0.85;;;;;;;27.97;35.14;101174.97;5012298;28;20053;-63
2022/08/10 06:56:26;;;;;;;6.93;1.10;;;;;;;28.02;35.57;101165.31;5009717;28;20041;-64
2022/08/10 06:59:24;;;;;;;2.83;1.10;;;;;;;28.08;35.96;101172.03;5012189;28;20049;-64
2022/08/10 07:02:13;;;;;;;4.00;0.70;;;;;;;28.12;35.78;101177.59;5011875;28;20445;-64
2022/08/10 07:05:02;;;;;;;1.52;0.80;;;;;;;28.15;37.05;101179.50;5001870;28;20061;-63
2022/08/10 07:07:51;;;;;;;1.65;0.75;;;;;;;28.18;37.81;101179.47;5011882;28;20049;-64
2022/08/10 07:10:37;;;;;;;3.88;1.00;;;;;;;28.23;36.38;101186.59;5010023;28;20052;-63
2022/08/10 07:13:23;;;;;;;2.92;1.00;;;;;;;28.26;35.66;101191.31;5011814;28;20408;-63
2022/08/10 07:16:10;;;;;;;3.78;1.02;;;;;;;28.30;35.63;101180.88;5009894;28;20049;-64
2022/08/10 07:18:59;;;;;;;1.38;1.00;;;;;;;28.35;36.06;101185.97;5083849;23;20076;-61
2022/08/10 07:21:45;;;;;;;4.55;1.15;;;;;;;28.39;36.32;101189.53;5011485;28;20041;-61
2022/08/10 07:24:32;;;;;;;2.10;0.95;;;;;;;28.41;36.00;101187.88;5006106;28;20521;-60
2022/08/10 07:27:18;;;;;;;2.20;0.88;;;;;;;28.42;33.40;101194.25;5011890;28;20041;-60
2022/08/10 07:30:05;;;;;;;2.92;1.23;;;;;;;28.53;31.74;101194.88;5011562;28;20046;-60
2022/08/10 07:32:51;;;;;;;1.48;0.90;;;;;;;28.58;31.53;101193.59;5012366;28;20523;-60
2022/08/10 07:35:37;;;;;;;3.55;1.48;;;;;;;28.62;30.63;101200.69;5006966;28;20254;-60
2022/08/10 07:38:27;;;;;;;7.95;0.88;;;;;;;28.67;30.54;101191.00;4994722;28;20396;-60
2022/08/10 07:41:16;;;;;;;5.57;1.20;;;;;;;28.70;30.67;101193.75;5004697;28;20061;-60
2022/08/10 07:44:04;;;;;;;2.60;0.75;;;;;;;28.77;30.00;101182.44;5008412;28;20409;-60
2022/08/10 07:46:51;;;;;;;4.00;1.05;;;;;;;28.79;29.37;101184.84;5009776;28;20643;-60
2022/08/10 07:49:39;;;;;;;1.95;0.80;;;;;;;28.86;30.86;101191.06;5011530;28;20045;-60
2022/08/10 07:52:25;;;;;;;10.05;1.30;;;;;;;28.89;32.00;101187.44;5011567;28;20397;-60
2022/08/10 07:55:15;;;;;;;2.33;0.95;;;;;;;28.98;31.29;101188.88;5011385;28;20053;-60
2022/08/10 07:58:02;;;;;;;4.25;1.13;;;;;;;29.00;30.52;101192.81;5011686;28;20061;-60
2022/08/10 08:00:50;;;;;;;2.72;1.33;;;;;;;29.04;32.04;101195.56;5011253;28;20052;-60
2022/08/10 08:03:36;;;;;;;4.90;1.52;;;;;;;29.06;31.48;101184.69;5007975;28;20052;-60
2022/08/10 08:06:22;;;;;;;2.83;0.95;;;;;;;29.08;30.56;101185.84;5004187;28;20049;-60
2022/08/10 08:09:07;;;;;;;2.65;0.57;;;;;;;29.11;30.80;101193.38;5000416;28;20049;-60
2022/08/10 08:11:54;;;;;;;2.30;1.00;;;;;;;29.16;30.24;101186.47;5010789;28;20064;-60
2022/08/10 08:14:42;;;;;;;10.18;1.08;;;;;;;29.19;29.56;101180.84;5011190;28;20068;-60
2022/08/10 08:17:29;;;;;;;3.33;1.05;;;;;;;29.26;29.75;101189.06;5011056;28;20500;-60
2022/08/10 08:20:16;;;;;;;8.27;1.45;;;;;;;29.30;29.29;101187.00;5002853;28;20427;-60
2022/08/10 08:23:02;;;;;;;4.28;1.35;;;;;;;29.36;29.44;101189.34;5009355;28;20057;-60
2022/08/10 08:25:48;;;;;;;9.70;1.23;;;;;;;29.42;28.84;101187.56;5010825;28;20048;-60
2022/08/10 08:28:34;;;;;;;5.13;0.98;;;;;;;29.45;29.40;101181.91;5002622;28;20044;-60
2022/08/10 08:31:21;;;;;;;5.47;0.95;;;;;;;29.50;28.97;101189.81;5010865;28;20065;-60
2022/08/10 08:34:08;;;;;;;5.40;1.42;;;;;;;29.57;31.27;101194.44;5017708;28;20049;-60
2022/08/10 08:36:54;;;;;;;1.67;1.00;;;;;;;29.58;29.55;101190.44;5011065;28;20057;-60
2022/08/10 08:39:40;;;;;;;6.15;1.58;;;;;;;29.64;30.35;101195.09;5001774;28;20048;-60
2022/08/10 08:42:43;;;;;;;4.20;1.40;;;;;;;29.64;30.65;101185.91;4992843;28;20521;-60
2022/08/10 08:45:55;;;;;;;4.07;1.30;;;;;;;29.67;28.21;101193.44;4996959;28;20037;-59
2022/08/10 08:48:49;;;;;;;4.30;0.93;;;;;;;29.70;28.58;101182.16;5006392;28;20048;-60
2022/08/10 08:51:56;;;;;;;9.27;1.40;;;;;;;29.73;28.16;101192.50;4992780;28;20042;-59
2022/08/10 08:54:56;;;;;;;2.70;0.90;;;;;;;29.84;28.35;101185.84;4995032;28;20053;-60
2022/08/10 08:58:00;;;;;;;6.95;1.00;;;;;;;29.89;27.51;101176.91;4994950;28;20045;-60
2022/08/10 09:01:02;;;;;;;6.45;1.15;;;;;;;29.98;28.93;101185.53;4994814;28;20049;-60
2022/08/10 09:03:57;;;;;;;3.70;1.33;;;;;;;30.00;30.99;101183.09;5002843;28;20393;-60
2022/08/10 09:06:45;;;;;;;2.80;0.90;;;;;;;30.00;29.00;101171.88;5014289;28;20053;-60
2022/08/10 09:09:33;;;;;;;3.83;1.00;;;;;;;30.02;29.75;101194.69;5014247;28;20058;-60
2022/08/10 09:12:46;;;;;;;4.32;1.30;;;;;;;30.06;30.63;101181.34;5014399;28;20049;-60
2022/08/10 09:15:37;;;;;;;4.43;1.23;;;;;;;30.07;28.83;101185.75;5014274;28;20053;-59
2022/08/10 09:18:47;;;;;;;2.55;0.80;;;;;;;30.11;27.56;101186.44;5013994;28;20057;-60
2022/08/10 09:21:56;;;;;;;2.65;1.13;;;;;;;30.18;28.19;101183.44;4999196;28;20049;-60
2022/08/10 09:25:08;;;;;;;2.90;1.10;;;;;;;30.23;27.65;101182.91;5013890;28;20049;-60
2022/08/10 09:28:07;;;;;;;2.30;0.90;;;;;;;30.32;27.58;101187.91;4984472;28;20053;-59
2022/08/10 09:31:05;;;;;;;5.55;1.13;;;;;;;30.38;28.27;101180.53;5003012;28;20049;-60
2022/08/10 09:33:59;;;;;;;3.00;0.82;;;;;;;30.44;30.42;101190.00;5005710;28;20041;-60
2022/08/10 09:36:53;;;;;;;5.78;0.80;;;;;;;30.46;27.13;101179.94;5013888;28;20393;-60
2022/08/10 09:39:54;;;;;;;1.43;0.70;;;;;;;30.52;27.70;101181.00;5013859;28;20061;-60
2022/08/10 09:42:54;;;;;;;4.95;1.52;;;;;;;30.62;29.34;101181.16;5003389;28;20245;-60
2022/08/10 09:46:14;;;;;;;1.35;0.98;;;;;;;30.64;27.45;101173.06;5011820;28;20045;-60
2022/08/10 09:49:15;;;;;;;5.20;1.00;;;;;;;30.67;27.91;101173.00;5013686;28;20516;-61
2022/08/10 09:52:38;;;;;;;2.45;1.13;;;;;;;30.71;27.72;101167.25;5013453;28;20072;-60
2022/08/10 09:55:45;;;;;;;5.03;0.85;;;;;;;30.78;27.16;101161.47;4985618;28;20057;-60
2022/08/10 09:58:41;;;;;;;1.38;0.85;;;;;;;30.86;27.10;101160.03;5007704;28;20048;-60
2022/08/10 10:01:36;;;;;;;3.45;1.20;;;;;;;30.95;28.24;101165.78;5013254;28;20056;-60
2022/08/10 10:04:20;;;;;;;2.28;1.20;;;;;;;30.95;30.62;101168.59;5013405;28;20053;-61
2022/08/10 10:07:09;;;;;;;2.05;0.98;;;;;;;30.94;28.51;101161.38;5012747;28;20417;-61
2022/08/10 10:10:01;;;;;;;5.72;0.95;;;;;;;31.01;27.68;101164.00;4997438;28;20049;-61
2022/08/10 10:12:58;;;;;;;1.75;1.10;;;;;;;31.04;26.86;101160.31;5000518;28;20048;-61
2022/08/10 10:15:58;;;;;;;4.28;1.10;;;;;;;31.11;26.65;101157.31;5010043;28;20049;-61
2022/08/10 10:18:53;;;;;;;1.52;0.90;;;;;;;31.16;26.66;101151.16;5009197;28;20053;-61
2022/08/10 10:21:48;;;;;;;36.38;2.50;;;;;;;31.26;26.69;101161.28;5008203;28;20041;-61
2022/08/10 10:24:47;;;;;;;7.70;1.15;;;;;;;31.32;26.87;101156.69;5013033;28;20044;-61
2022/08/10 10:27:48;;;;;;;6.28;1.13;;;;;;;31.35;27.89;101147.34;4993529;28;20045;-61
2022/08/10 10:30:44;;;;;;;3.40;0.77;;;;;;;31.40;26.88;101154.44;4999177;28;20057;-61
2022/08/10 10:33:58;;;;;;;1.40;1.00;;;;;;;31.46;26.82;101146.25;5012521;28;20045;-61
2022/08/10 10:36:45;;;;;;;7.20;1.15;;;;;;;31.50;26.86;101141.28;5010757;28;20040;-61
2022/08/10 10:39:32;;;;;;;2.15;0.88;;;;;;;31.53;26.82;101134.78;4999174;28;20044;-60
2022/08/10 10:42:30;;;;;;;1.38;0.77;;;;;;;31.58;26.22;101135.03;5012771;28;20053;-61
2022/08/10 10:45:25;;;;;;;8.27;1.38;;;;;;;31.62;26.19;101135.72;5012854;28;20162;-61
2022/08/10 10:48:31;;;;;;;4.97;1.13;;;;;;;31.72;27.75;101137.41;5012173;28;20045;-61
2022/08/10 10:52:01;;;;;;;1.48;0.73;;;;;;;31.75;28.20;101125.25;5012590;28;20053;-60
2022/08/10 10:55:03;;;;;;;3.53;1.25;;;;;;;31.75;26.93;101116.78;5012607;28;20045;-61
2022/08/10 10:58:16;;;;;;;1.55;0.82;;;;;;;31.81;26.36;101119.84;5012398;28;20045;-61
2022/08/10 11:01:21;;;;;;;2.15;1.00;;;;;;;31.88;27.51;101119.63;5012319;28;20045;-61
2022/08/10 11:04:17;;;;;;;;;;;;;;;31.88;27.83;101105.53;5012975;28;20060;-61
2022/08/10 11:07:23;;;;;;;5.70;1.02;;;;;;;31.95;26.36;101098.91;5012228;28;19921;-61
2022/08/10 11:10:18;;;;;;;2.97;0.80;;;;;;;32.06;25.76;101102.13;5012028;28;20049;-60
2022/08/10 11:13:23;;;;;;;3.00;1.15;;;;;;;32.12;25.12;101095.50;4999562;28;20068;-60
2022/08/10 11:16:23;;;;;;;4.20;1.00;;;;;;;32.19;26.43;101092.44;5011997;28;20401;-61
2022/08/10 11:19:17;;;;;;;2.28;0.93;;;;;;;32.20;27.96;101085.56;5011888;28;20069;-61
2022/08/10 11:22:08;;;;;;;;;;;;;;;32.14;27.30;101089.44;5012409;28;20404;-61
2022/08/10 11:25:00;;;;;;;4.20;1.65;;;;;;;32.16;26.24;101084.91;5008344;28;19917;-61
2022/08/10 11:28:07;;;;;;;2.67;1.05;;;;;;;31.80;27.93;101087.31;5009670;28;20068;-57
2022/08/10 11:31:00;;;;;;;7.10;0.95;;;;;;;31.24;28.75;101084.28;5002510;28;20437;-57
2022/08/10 11:33:56;;;;;;;38.10;1.63;;;;;;;30.85;28.76;101080.59;4997429;28;20041;-57
2022/08/10 11:36:47;;;;;;;4.95;1.40;;;;;;;31.22;28.25;101084.72;5000170;28;20806;-57
2022/08/10 11:39:56;;;;;;;2.10;1.05;;;;;;;30.30;30.10;101080.91;5003651;28;20045;-57
2022/08/10 11:42:48;;;;;;;1.60;0.80;;;;;;;30.17;30.48;101069.66;5010588;28;20049;-57
2022/08/10 11:45:35;;;;;;;2.80;1.15;;;;;;;29.79;32.08;101075.00;5001933;28;20445;-57
2022/08/10 11:48:33;;;;;;;3.90;0.98;;;;;;;29.48;32.29;101070.94;5006345;28;20405;-57
2022/08/10 11:51:25;;;;;;;8.52;1.60;;;;;;;29.20;32.70;101070.34;5006305;28;20405;-58
2022/08/10 11:54:20;;;;;;;6.63;1.40;;;;;;;29.42;31.41;101069.88;5011445;28;20057;-57
2022/08/10 11:57:07;;;;;;;7.00;1.33;;;;;;;29.40;32.39;101064.72;5000375;28;20054;-58
2022/08/10 11:59:55;;;;;;;2.42;1.00;;;;;;;30.11;29.57;101058.16;4995515;28;20044;-58
2022/08/10 12:02:54;;;;;;;4.88;1.30;;;;;;;30.47;30.47;101057.22;5006939;28;20045;-58
2022/08/10 12:05:41;;;;;;;3.08;1.02;;;;;;;30.55;29.22;101064.22;5008994;28;20516;-58
2022/08/10 12:08:29;;;;;;;5.75;1.50;;;;;;;30.48;30.58;101050.34;4997311;28;20046;-57
2022/08/10 12:11:20;;;;;;;2.42;1.00;;;;;;;30.36;29.71;101054.69;5000099;28;20053;-58
2022/08/10 12:14:11;;;;;;;8.55;0.98;;;;;;;30.77;27.70;101050.34;5004311;28;20041;-57
2022/08/10 12:17:03;;;;;;;7.90;1.10;;;;;;;30.77;28.09;101053.16;5011090;28;20049;-57
2022/08/10 12:20:08;;;;;;;3.55;0.93;;;;;;;30.62;29.79;101049.19;5011387;28;20528;-58
2022/08/10 12:23:01;;;;;;;4.18;1.48;;;;;;;30.62;29.84;101038.75;5011199;28;20057;-58
2022/08/10 12:26:06;;;;;;;9.63;1.08;;;;;;;30.12;31.32;101051.31;5014571;28;20394;-58
2022/08/10 12:29:09;;;;;;;2.60;1.15;;;;;;;30.12;31.26;101033.72;5017929;28;20069;-58
2022/08/10 12:32:04;;;;;;;2.08;1.05;;;;;;;30.10;30.70;101030.53;5011188;28;20053;-58
2022/08/10 12:34:51;;;;;;;;;;;;;;;30.29;29.50;101031.63;5005919;28;20064;-58
2022/08/10 12:38:27;;;;;;;3.42;1.05;;;;;;;30.58;29.25;101030.41;5017938;28;19913;-58
2022/08/10 12:41:20;;;;;;;2.35;1.13;;;;;;;30.35;31.04;101024.25;5017143;28;20057;-58
2022/08/10 12:44:13;;;;;;;1.98;0.90;;;;;;;29.78;31.87;101025.72;5017204;28;20053;-58
2022/08/10 12:47:32;;;;;;;1.60;0.90;;;;;;;29.84;31.32;101011.97;5017198;28;20061;-58
2022/08/10 12:50:32;;;;;;;3.05;1.10;;;;;;;29.84;31.99;101014.78;5017378;28;20052;-58
2022/08/10 12:53:40;;;;;;;3.72;1.00;;;;;;;30.00;30.65;101018.38;5013947;28;20036;-58
2022/08/10 12:56:28;;;;;;;5.70;1.15;;;;;;;30.07;31.22;101018.19;5008035;28;20041;-58
2022/08/10 12:59:14;;;;;;;1.92;0.90;;;;;;;30.18;31.24;101012.28;5015149;28;20628;-58
2022/08/10 13:02:00;;;;;;;1.67;0.90;;;;;;;30.48;29.22;101006.22;5006723;28;20045;-58
2022/08/10 13:04:49;;;;;;;1.20;0.82;;;;;;;30.56;29.27;101007.63;5007635;28;20409;-57
2022/08/10 13:07:38;;;;;;;4.18;1.40;;;;;;;30.20;31.41;101006.22;5000447;28;20045;-58
2022/08/10 13:10:23;;;;;;;5.40;0.88;;;;;;;29.94;31.51;100999.72;5004907;28;20536;-58
2022/08/10 13:13:13;;;;;;;4.20;0.95;;;;;;;30.20;29.72;100998.59;5008191;28;20040;-58
2022/08/10 13:15:59;;;;;;;7.03;1.33;;;;;;;30.78;27.90;100999.34;5010160;28;20052;-57
2022/08/10 13:18:45;;;;;;;4.20;0.95;;;;;;;30.75;29.51;100997.44;5006493;28;20037;-57
2022/08/10 13:21:35;;;;;;;3.65;1.10;;;;;;;30.27;29.81;100984.38;5006578;28;20045;-57
2022/08/10 13:24:27;;;;;;;3.70;1.10;;;;;;;30.69;28.57;100990.78;4992373;28;20041;-58
2022/08/10 13:27:15;;;;;;;1.23;0.88;;;;;;;31.17;28.17;100986.94;5029677;23;20412;-57